sensor_id;sensor_type;location;lat;lon;timestamp;pressure;altitude;pressure_sealevel;temperature;humidity
59435;BME280;45241;49.768;8.636;2023-04-07T00:00:49;100170.53;;;10.35;88.67
59435;BME280;45241;49.768;8.636;2023-04-07T00:03:14;100172.69;;;10.46;88.38
59435;BME280;45241;49.768;8.636;2023-04-07T00:05:39;100169.13;;;10.39;87.77
59435;BME280;45241;49.768;8.636;2023-04-07T00:08:05;100172.94;;;10.51;87.34
59435;BME280;45241;49.768;8.636;2023-04-07T00:10:30;100168.41;;;10.52;87.20
59435;BME280;45241;49.768;8.636;2023-04-07T00:12:56;100175.66;;;10.58;88.59
59435;BME280;45241;49.768;8.636;2023-04-07T00:15:21;100168.47;;;10.59;87.28
59435;BME280;45241;49.768;8.636;2023-04-07T00:17:46;100175.88;;;10.56;85.87
59435;BME280;45241;49.768;8.636;2023-04-07T00:20:11;100166.16;;;10.55;85.28
59435;BME280;45241;49.768;8.636;2023-04-07T00:22:36;100155.78;;;10.24;86.21
59435;BME280;45241;49.768;8.636;2023-04-07T00:25:02;100158.84;;;10.43;86.44
59435;BME280;45241;49.768;8.636;2023-04-07T00:27:27;100155.44;;;10.34;87.84
59435;BME280;45241;49.768;8.636;2023-04-07T00:29:52;100151.44;;;10.45;87.36
59435;BME280;45241;49.768;8.636;2023-04-07T00:32:19;100148.91;;;10.37;87.03
59435;BME280;45241;49.768;8.636;2023-04-07T00:34:45;100136.69;;;10.34;87.31
59435;BME280;45241;49.768;8.636;2023-04-07T00:37:10;100133.19;;;10.34;87.88
59435;BME280;45241;49.768;8.636;2023-04-07T00:39:35;100137.66;;;10.05;88.13
59435;BME280;45241;49.768;8.636;2023-04-07T00:42:02;100126.03;;;10.41;87.42
59435;BME280;45241;49.768;8.636;2023-04-07T00:44:27;100130.97;;;10.37;88.32
59435;BME280;45241;49.768;8.636;2023-04-07T00:46:52;100122.97;;;10.44;87.55
59435;BME280;45241;49.768;8.636;2023-04-07T00:49:18;100125.59;;;10.16;91.18
59435;BME280;45241;49.768;8.636;2023-04-07T00:51:43;100122.47;;;10.34;90.22
59435;BME280;45241;49.768;8.636;2023-04-07T00:54:09;100118.91;;;10.48;90.16
59435;BME280;45241;49.768;8.636;2023-04-07T00:56:35;100111.09;;;10.53;87.20
59435;BME280;45241;49.768;8.636;2023-04-07T00:59:00;100112.06;;;10.45;86.80
59435;BME280;45241;49.768;8.636;2023-04-07T01:04:13;100098.03;;;10.43;86.59
59435;BME280;45241;49.768;8.636;2023-04-07T01:06:43;100098.97;;;10.57;85.89
59435;BME280;45241;49.768;8.636;2023-04-07T01:09:18;100097.56;;;10.61;85.75
59435;BME280;45241;49.768;8.636;2023-04-07T01:14:17;100087.59;;;10.55;84.71
59435;BME280;45241;49.768;8.636;2023-04-07T01:16:45;100084.19;;;10.68;85.78
59435;BME280;45241;49.768;8.636;2023-04-07T01:19:15;100087.69;;;10.62;87.34
59435;BME280;45241;49.768;8.636;2023-04-07T01:21:51;100082.53;;;10.67;86.10
59435;BME280;45241;49.768;8.636;2023-04-07T01:24:31;100086.56;;;10.49;87.78
59435;BME280;45241;49.768;8.636;2023-04-07T01:26:59;100079.22;;;10.65;85.00
59435;BME280;45241;49.768;8.636;2023-04-07T01:29:37;100082.75;;;10.65;85.33
59435;BME280;45241;49.768;8.636;2023-04-07T01:32:05;100080.50;;;10.69;84.49
59435;BME280;45241;49.768;8.636;2023-04-07T01:34:32;100076.38;;;10.73;82.98
59435;BME280;45241;49.768;8.636;2023-04-07T01:36:58;100077.19;;;10.67;84.09
59435;BME280;45241;49.768;8.636;2023-04-07T01:39:26;100073.91;;;10.71;83.77
59435;BME280;45241;49.768;8.636;2023-04-07T01:41:51;100075.38;;;10.74;84.31
59435;BME280;45241;49.768;8.636;2023-04-07T01:44:17;100075.38;;;10.74;85.47
59435;BME280;45241;49.768;8.636;2023-04-07T01:46:43;100067.69;;;10.64;85.58
59435;BME280;45241;49.768;8.636;2023-04-07T01:49:09;100069.63;;;10.77;83.81
59435;BME280;45241;49.768;8.636;2023-04-07T01:51:35;100061.59;;;10.77;85.65
59435;BME280;45241;49.768;8.636;2023-04-07T01:54:00;100067.88;;;10.63;82.85
59435;BME280;45241;49.768;8.636;2023-04-07T01:56:26;100064.69;;;10.80;84.81
59435;BME280;45241;49.768;8.636;2023-04-07T01:58:51;100060.75;;;10.76;84.28
59435;BME280;45241;49.768;8.636;2023-04-07T02:01:17;100061.81;;;10.82;83.24
59435;BME280;45241;49.768;8.636;2023-04-07T02:03:44;100056.63;;;10.74;82.17
59435;BME280;45241;49.768;8.636;2023-04-07T02:06:11;100058.06;;;10.76;82.46
59435;BME280;45241;49.768;8.636;2023-04-07T02:08:38;100059.09;;;10.75;81.94
59435;BME280;45241;49.768;8.636;2023-04-07T02:11:06;100055.63;;;10.81;82.40
59435;BME280;45241;49.768;8.636;2023-04-07T02:13:33;100058.19;;;10.62;84.06
59435;BME280;45241;49.768;8.636;2023-04-07T02:15:59;100055.25;;;10.56;81.59
59435;BME280;45241;49.768;8.636;2023-04-07T02:18:25;100056.03;;;10.78;80.82
59435;BME280;45241;49.768;8.636;2023-04-07T02:20:51;100052.50;;;10.78;81.37
59435;BME280;45241;49.768;8.636;2023-04-07T02:23:17;100047.09;;;10.71;80.64
59435;BME280;45241;49.768;8.636;2023-04-07T02:25:42;100045.53;;;10.83;80.45
59435;BME280;45241;49.768;8.636;2023-04-07T02:28:08;100042.41;;;10.80;80.30
59435;BME280;45241;49.768;8.636;2023-04-07T02:30:34;100045.78;;;10.89;80.25
59435;BME280;45241;49.768;8.636;2023-04-07T02:32:59;100052.34;;;10.86;81.79
59435;BME280;45241;49.768;8.636;2023-04-07T02:35:25;100043.72;;;10.91;83.47
59435;BME280;45241;49.768;8.636;2023-04-07T02:37:50;100043.31;;;10.94;83.98
59435;BME280;45241;49.768;8.636;2023-04-07T02:40:15;100044.13;;;10.94;82.53
59435;BME280;45241;49.768;8.636;2023-04-07T02:42:41;100042.13;;;11.03;83.69
59435;BME280;45241;49.768;8.636;2023-04-07T02:45:06;100037.13;;;10.93;83.80
59435;BME280;45241;49.768;8.636;2023-04-07T02:47:32;100029.28;;;10.92;82.30
59435;BME280;45241;49.768;8.636;2023-04-07T02:49:58;100035.47;;;10.92;82.56
59435;BME280;45241;49.768;8.636;2023-04-07T02:52:23;100031.53;;;10.88;81.48
59435;BME280;45241;49.768;8.636;2023-04-07T02:54:48;100021.47;;;10.97;80.87
59435;BME280;45241;49.768;8.636;2023-04-07T02:57:13;100027.44;;;10.99;80.87
59435;BME280;45241;49.768;8.636;2023-04-07T02:59:39;100020.41;;;10.91;80.02
59435;BME280;45241;49.768;8.636;2023-04-07T03:02:05;100025.78;;;10.98;80.93
59435;BME280;45241;49.768;8.636;2023-04-07T03:04:30;100025.97;;;10.90;80.61
59435;BME280;45241;49.768;8.636;2023-04-07T03:06:56;100021.78;;;10.74;81.21
59435;BME280;45241;49.768;8.636;2023-04-07T03:09:21;100018.34;;;10.87;80.21
59435;BME280;45241;49.768;8.636;2023-04-07T03:11:46;100021.22;;;10.92;81.27
59435;BME280;45241;49.768;8.636;2023-04-07T03:14:12;100022.06;;;10.92;82.84
59435;BME280;45241;49.768;8.636;2023-04-07T03:16:37;100017.94;;;10.96;83.08
59435;BME280;45241;49.768;8.636;2023-04-07T03:19:02;100018.75;;;10.90;84.21
59435;BME280;45241;49.768;8.636;2023-04-07T03:21:27;100019.78;;;10.89;83.11
59435;BME280;45241;49.768;8.636;2023-04-07T03:23:53;100021.66;;;10.95;83.19
59435;BME280;45241;49.768;8.636;2023-04-07T03:26:18;100020.34;;;10.84;84.25
59435;BME280;45241;49.768;8.636;2023-04-07T03:28:43;100017.22;;;10.74;84.26
59435;BME280;45241;49.768;8.636;2023-04-07T03:31:08;100019.59;;;10.91;84.74
59435;BME280;45241;49.768;8.636;2023-04-07T03:33:34;100010.94;;;10.95;83.04
59435;BME280;45241;49.768;8.636;2023-04-07T03:35:59;100012.75;;;10.88;83.77
59435;BME280;45241;49.768;8.636;2023-04-07T03:38:24;100016.91;;;10.91;82.00
59435;BME280;45241;49.768;8.636;2023-04-07T03:40:50;100009.88;;;10.90;82.39
59435;BME280;45241;49.768;8.636;2023-04-07T03:43:15;100007.91;;;10.70;82.82
59435;BME280;45241;49.768;8.636;2023-04-07T03:45:40;100012.25;;;10.71;80.58
59435;BME280;45241;49.768;8.636;2023-04-07T03:48:06;100016.44;;;10.80;81.76
59435;BME280;45241;49.768;8.636;2023-04-07T03:50:35;100009.41;;;10.79;80.38
59435;BME280;45241;49.768;8.636;2023-04-07T03:53:01;100006.31;;;10.76;80.41
59435;BME280;45241;49.768;8.636;2023-04-07T03:55:26;100006.78;;;10.93;80.41
59435;BME280;45241;49.768;8.636;2023-04-07T03:57:51;100006.50;;;10.74;80.76
59435;BME280;45241;49.768;8.636;2023-04-07T04:00:16;99999.09;;;10.83;80.66
59435;BME280;45241;49.768;8.636;2023-04-07T04:02:42;100008.03;;;10.90;81.05
59435;BME280;45241;49.768;8.636;2023-04-07T04:05:07;100003.69;;;10.89;82.30
59435;BME280;45241;49.768;8.636;2023-04-07T04:07:32;100006.94;;;10.84;81.71
59435;BME280;45241;49.768;8.636;2023-04-07T04:09:58;100008.84;;;10.91;82.53
59435;BME280;45241;49.768;8.636;2023-04-07T04:12:23;100002.88;;;10.95;82.17
59435;BME280;45241;49.768;8.636;2023-04-07T04:14:48;99998.53;;;10.88;82.18
59435;BME280;45241;49.768;8.636;2023-04-07T04:17:13;100005.75;;;10.87;83.50
59435;BME280;45241;49.768;8.636;2023-04-07T04:19:39;100004.06;;;10.86;83.48
59435;BME280;45241;49.768;8.636;2023-04-07T04:22:04;100003.66;;;10.82;83.76
59435;BME280;45241;49.768;8.636;2023-04-07T04:24:29;100005.97;;;10.92;84.08
59435;BME280;45241;49.768;8.636;2023-04-07T04:26:55;100009.91;;;10.96;82.79
59435;BME280;45241;49.768;8.636;2023-04-07T04:29:20;100008.66;;;10.99;83.00
59435;BME280;45241;49.768;8.636;2023-04-07T04:31:46;100010.16;;;11.01;84.15
59435;BME280;45241;49.768;8.636;2023-04-07T04:34:11;100012.59;;;10.96;85.08
59435;BME280;45241;49.768;8.636;2023-04-07T04:36:36;100010.50;;;10.92;83.85
59435;BME280;45241;49.768;8.636;2023-04-07T04:39:03;100014.63;;;10.88;85.59
59435;BME280;45241;49.768;8.636;2023-04-07T04:41:28;100018.13;;;10.88;85.14
59435;BME280;45241;49.768;8.636;2023-04-07T04:43:53;100017.25;;;10.81;83.29
59435;BME280;45241;49.768;8.636;2023-04-07T04:46:18;100017.72;;;10.91;83.00
59435;BME280;45241;49.768;8.636;2023-04-07T04:48:44;100017.75;;;10.98;84.49
59435;BME280;45241;49.768;8.636;2023-04-07T04:51:09;100028.09;;;11.01;84.46
59435;BME280;45241;49.768;8.636;2023-04-07T04:53:34;100018.56;;;10.92;82.90
59435;BME280;45241;49.768;8.636;2023-04-07T04:56:00;100021.03;;;10.93;82.98
59435;BME280;45241;49.768;8.636;2023-04-07T04:58:25;100009.50;;;10.99;84.05
59435;BME280;45241;49.768;8.636;2023-04-07T05:00:53;100014.38;;;10.82;85.01
59435;BME280;45241;49.768;8.636;2023-04-07T05:03:22;100011.94;;;10.88;84.49
59435;BME280;45241;49.768;8.636;2023-04-07T05:05:47;100014.84;;;10.93;84.72
59435;BME280;45241;49.768;8.636;2023-04-07T05:08:13;100018.75;;;10.90;83.70
59435;BME280;45241;49.768;8.636;2023-04-07T05:10:38;100020.16;;;10.86;84.04
59435;BME280;45241;49.768;8.636;2023-04-07T05:13:04;100024.75;;;10.92;84.42
59435;BME280;45241;49.768;8.636;2023-04-07T05:15:29;100024.75;;;10.92;82.67
59435;BME280;45241;49.768;8.636;2023-04-07T05:17:54;100024.13;;;10.90;83.63
59435;BME280;45241;49.768;8.636;2023-04-07T05:20:20;100021.66;;;10.95;82.90
59435;BME280;45241;49.768;8.636;2023-04-07T05:22:45;100021.09;;;11.00;82.48
59435;BME280;45241;49.768;8.636;2023-04-07T05:25:10;100017.38;;;11.01;81.88
59435;BME280;45241;49.768;8.636;2023-04-07T05:27:35;100017.94;;;10.90;82.01
59435;BME280;45241;49.768;8.636;2023-04-07T05:30:00;100023.72;;;10.93;83.20
59435;BME280;45241;49.768;8.636;2023-04-07T05:32:27;100024.81;;;11.05;82.83
59435;BME280;45241;49.768;8.636;2023-04-07T05:34:52;100025.84;;;11.11;82.00
59435;BME280;45241;49.768;8.636;2023-04-07T05:37:17;100020.06;;;11.07;82.69
59435;BME280;45241;49.768;8.636;2023-04-07T05:39:42;100024.00;;;11.11;82.00
59435;BME280;45241;49.768;8.636;2023-04-07T05:42:07;100020.13;;;11.21;82.97
59435;BME280;45241;49.768;8.636;2023-04-07T05:44:33;100025.28;;;11.15;83.79
59435;BME280;45241;49.768;8.636;2023-04-07T05:46:58;100036.22;;;11.14;82.72
59435;BME280;45241;49.768;8.636;2023-04-07T05:49:23;100034.16;;;11.16;83.69
59435;BME280;45241;49.768;8.636;2023-04-07T05:51:48;100035.13;;;11.08;83.12
59435;BME280;45241;49.768;8.636;2023-04-07T05:54:14;100029.00;;;11.21;81.78
59435;BME280;45241;49.768;8.636;2023-04-07T05:56:39;100034.72;;;11.11;81.52
59435;BME280;45241;49.768;8.636;2023-04-07T05:59:04;100031.63;;;11.08;82.39
59435;BME280;45241;49.768;8.636;2023-04-07T06:01:29;100032.25;;;11.10;83.46
59435;BME280;45241;49.768;8.636;2023-04-07T06:03:54;100030.19;;;11.12;82.48
59435;BME280;45241;49.768;8.636;2023-04-07T06:06:20;100033.41;;;10.94;83.03
59435;BME280;45241;49.768;8.636;2023-04-07T06:08:45;100033.88;;;11.04;82.02
59435;BME280;45241;49.768;8.636;2023-04-07T06:11:11;100029.81;;;11.15;81.73
59435;BME280;45241;49.768;8.636;2023-04-07T06:13:36;100029.19;;;11.20;81.39
59435;BME280;45241;49.768;8.636;2023-04-07T06:16:01;100030.94;;;10.99;82.08
59435;BME280;45241;49.768;8.636;2023-04-07T06:18:26;100030.66;;;11.22;81.86
59435;BME280;45241;49.768;8.636;2023-04-07T06:20:51;100027.53;;;11.19;81.67
59435;BME280;45241;49.768;8.636;2023-04-07T06:23:17;100028.00;;;11.29;81.70
59435;BME280;45241;49.768;8.636;2023-04-07T06:25:42;100027.56;;;11.25;83.80
59435;BME280;45241;49.768;8.636;2023-04-07T06:28:07;100023.72;;;11.34;82.03
59435;BME280;45241;49.768;8.636;2023-04-07T06:30:33;100026.63;;;11.39;82.72
59435;BME280;45241;49.768;8.636;2023-04-07T06:32:58;100025.19;;;11.43;82.96
59435;BME280;45241;49.768;8.636;2023-04-07T06:35:23;100026.44;;;11.48;85.05
59435;BME280;45241;49.768;8.636;2023-04-07T06:37:50;100021.28;;;11.46;83.33
59435;BME280;45241;49.768;8.636;2023-04-07T06:40:16;100032.44;;;11.50;83.00
59435;BME280;45241;49.768;8.636;2023-04-07T06:42:41;100033.69;;;11.54;85.90
59435;BME280;45241;49.768;8.636;2023-04-07T06:45:06;100023.53;;;11.42;84.68
59435;BME280;45241;49.768;8.636;2023-04-07T06:47:32;100031.44;;;11.57;83.23
59435;BME280;45241;49.768;8.636;2023-04-07T06:49:57;100039.47;;;11.57;81.97
59435;BME280;45241;49.768;8.636;2023-04-07T06:52:22;100034.91;;;11.51;82.40
59435;BME280;45241;49.768;8.636;2023-04-07T06:54:47;100034.25;;;11.36;80.44
59435;BME280;45241;49.768;8.636;2023-04-07T06:57:12;100024.56;;;11.48;80.05
59435;BME280;45241;49.768;8.636;2023-04-07T06:59:38;100029.53;;;11.51;80.39
59435;BME280;45241;49.768;8.636;2023-04-07T07:02:03;100032.88;;;11.53;80.11
59435;BME280;45241;49.768;8.636;2023-04-07T07:04:29;100037.13;;;11.34;80.19
59435;BME280;45241;49.768;8.636;2023-04-07T07:06:54;100040.44;;;11.36;80.53
59435;BME280;45241;49.768;8.636;2023-04-07T07:09:20;100033.66;;;11.40;80.96
59435;BME280;45241;49.768;8.636;2023-04-07T07:11:45;100043.56;;;11.47;81.30
59435;BME280;45241;49.768;8.636;2023-04-07T07:14:11;100048.84;;;11.27;81.39
59435;BME280;45241;49.768;8.636;2023-04-07T07:16:37;100047.03;;;11.34;81.97
59435;BME280;45241;49.768;8.636;2023-04-07T07:19:02;100041.91;;;11.46;82.11
59435;BME280;45241;49.768;8.636;2023-04-07T07:21:27;100048.34;;;11.58;80.18
59435;BME280;45241;49.768;8.636;2023-04-07T07:23:52;100060.00;;;11.30;81.89
59435;BME280;45241;49.768;8.636;2023-04-07T07:26:17;100045.19;;;11.34;81.81
59435;BME280;45241;49.768;8.636;2023-04-07T07:28:43;100057.16;;;11.32;81.93
59435;BME280;45241;49.768;8.636;2023-04-07T07:31:11;100066.44;;;11.36;81.73
59435;BME280;45241;49.768;8.636;2023-04-07T07:33:40;100066.84;;;11.33;81.13
59435;BME280;45241;49.768;8.636;2023-04-07T07:36:06;100059.75;;;11.25;82.34
59435;BME280;45241;49.768;8.636;2023-04-07T07:38:31;100061.69;;;11.31;82.10
59435;BME280;45241;49.768;8.636;2023-04-07T07:40:56;100063.13;;;11.34;82.03
59435;BME280;45241;49.768;8.636;2023-04-07T07:43:21;100066.97;;;11.18;82.11
59435;BME280;45241;49.768;8.636;2023-04-07T07:45:47;100066.25;;;11.37;82.57
59435;BME280;45241;49.768;8.636;2023-04-07T07:48:12;100073.88;;;11.34;81.95
59435;BME280;45241;49.768;8.636;2023-04-07T07:50:37;100073.31;;;11.45;81.60
59435;BME280;45241;49.768;8.636;2023-04-07T07:53:02;100075.56;;;11.48;82.47
59435;BME280;45241;49.768;8.636;2023-04-07T07:55:28;100072.44;;;11.38;82.80
59435;BME280;45241;49.768;8.636;2023-04-07T07:57:53;100070.56;;;11.38;81.83
59435;BME280;45241;49.768;8.636;2023-04-07T08:00:18;100080.47;;;11.38;83.16
59435;BME280;45241;49.768;8.636;2023-04-07T08:02:43;100073.34;;;11.58;82.08
59435;BME280;45241;49.768;8.636;2023-04-07T08:05:09;100072.94;;;11.61;82.04
59435;BME280;45241;49.768;8.636;2023-04-07T08:07:34;100074.59;;;11.62;81.39
59435;BME280;45241;49.768;8.636;2023-04-07T08:10:00;100075.03;;;11.66;81.49
59435;BME280;45241;49.768;8.636;2023-04-07T08:12:25;100078.72;;;11.58;82.19
59435;BME280;45241;49.768;8.636;2023-04-07T08:14:51;100079.13;;;11.62;81.57
59435;BME280;45241;49.768;8.636;2023-04-07T08:17:16;100082.47;;;11.70;82.09
59435;BME280;45241;49.768;8.636;2023-04-07T08:19:41;100083.31;;;11.78;81.74
59435;BME280;45241;49.768;8.636;2023-04-07T08:22:06;100086.81;;;11.71;81.79
59435;BME280;45241;49.768;8.636;2023-04-07T08:24:31;100088.88;;;11.76;81.65
59435;BME280;45241;49.768;8.636;2023-04-07T08:26:57;100086.19;;;11.69;81.31
59435;BME280;45241;49.768;8.636;2023-04-07T08:29:22;100084.16;;;11.85;82.11
59435;BME280;45241;49.768;8.636;2023-04-07T08:31:47;100091.59;;;11.89;80.66
59435;BME280;45241;49.768;8.636;2023-04-07T08:34:12;100089.94;;;11.88;80.94
59435;BME280;45241;49.768;8.636;2023-04-07T08:36:38;100089.72;;;11.77;80.83
59435;BME280;45241;49.768;8.636;2023-04-07T08:39:03;100091.38;;;11.78;82.16
59435;BME280;45241;49.768;8.636;2023-04-07T08:41:32;100091.56;;;11.76;82.03
59435;BME280;45241;49.768;8.636;2023-04-07T08:43:57;100094.50;;;11.88;81.54
59435;BME280;45241;49.768;8.636;2023-04-07T08:46:25;100093.69;;;11.94;81.46
59435;BME280;45241;49.768;8.636;2023-04-07T08:48:51;100097.22;;;11.94;81.94
59435;BME280;45241;49.768;8.636;2023-04-07T08:51:19;100104.00;;;11.84;82.85
59435;BME280;45241;49.768;8.636;2023-04-07T08:53:48;100102.13;;;11.84;81.92
59435;BME280;45241;49.768;8.636;2023-04-07T08:56:17;100113.53;;;11.93;81.76
59435;BME280;45241;49.768;8.636;2023-04-07T08:58:43;100104.22;;;12.02;81.44
59435;BME280;45241;49.768;8.636;2023-04-07T09:01:09;100106.69;;;11.90;82.12
59435;BME280;45241;49.768;8.636;2023-04-07T09:03:34;100113.72;;;11.85;82.02
59435;BME280;45241;49.768;8.636;2023-04-07T09:06:00;100119.06;;;11.85;82.50
59435;BME280;45241;49.768;8.636;2023-04-07T09:08:25;100115.97;;;11.88;82.40
59435;BME280;45241;49.768;8.636;2023-04-07T09:10:50;100116.19;;;11.86;83.83
59435;BME280;45241;49.768;8.636;2023-04-07T09:13:16;100111.88;;;11.92;82.87
59435;BME280;45241;49.768;8.636;2023-04-07T09:15:41;100116.44;;;11.91;83.26
59435;BME280;45241;49.768;8.636;2023-04-07T09:18:06;100120.72;;;11.86;83.27
59435;BME280;45241;49.768;8.636;2023-04-07T09:23:25;100125.31;;;11.92;83.02
59435;BME280;45241;49.768;8.636;2023-04-07T09:25:51;100128.63;;;11.94;83.78
59435;BME280;45241;49.768;8.636;2023-04-07T09:28:17;100133.59;;;12.10;82.77
59435;BME280;45241;49.768;8.636;2023-04-07T09:30:42;100132.75;;;12.03;82.93
59435;BME280;45241;49.768;8.636;2023-04-07T09:33:16;100125.91;;;11.87;83.02
59435;BME280;45241;49.768;8.636;2023-04-07T09:35:50;100124.69;;;12.03;82.51
59435;BME280;45241;49.768;8.636;2023-04-07T09:38:17;100123.91;;;12.22;82.33
59435;BME280;45241;49.768;8.636;2023-04-07T09:40:42;100120.59;;;12.27;82.13
59435;BME280;45241;49.768;8.636;2023-04-07T09:43:13;100128.91;;;12.32;82.41
59435;BME280;45241;49.768;8.636;2023-04-07T09:45:39;100119.38;;;12.43;81.99
59435;BME280;45241;49.768;8.636;2023-04-07T09:48:19;100121.88;;;12.44;81.85
59435;BME280;45241;49.768;8.636;2023-04-07T09:50:45;100116.09;;;12.60;81.92
59435;BME280;45241;49.768;8.636;2023-04-07T09:53:14;100128.06;;;12.65;81.29
59435;BME280;45241;49.768;8.636;2023-04-07T09:55:40;100118.13;;;12.78;80.27
59435;BME280;45241;49.768;8.636;2023-04-07T09:58:06;100122.28;;;12.87;81.05
59435;BME280;45241;49.768;8.636;2023-04-07T10:00:32;100121.03;;;12.83;79.15
59435;BME280;45241;49.768;8.636;2023-04-07T10:02:59;100120.03;;;12.98;79.58
59435;BME280;45241;49.768;8.636;2023-04-07T10:05:24;100115.84;;;13.15;79.02
59435;BME280;45241;49.768;8.636;2023-04-07T10:07:50;100120.63;;;12.93;81.08
59435;BME280;45241;49.768;8.636;2023-04-07T10:10:15;100131.19;;;13.01;78.70
59435;BME280;45241;49.768;8.636;2023-04-07T10:12:41;100122.69;;;13.11;78.13
59435;BME280;45241;49.768;8.636;2023-04-07T10:15:07;100123.91;;;13.22;80.54
59435;BME280;45241;49.768;8.636;2023-04-07T10:17:32;100128.25;;;13.16;80.33
59435;BME280;45241;49.768;8.636;2023-04-07T10:19:58;100128.09;;;12.91;79.61
59435;BME280;45241;49.768;8.636;2023-04-07T10:22:23;100130.34;;;12.81;79.92
59435;BME280;45241;49.768;8.636;2023-04-07T10:27:18;100136.56;;;12.95;80.45
59435;BME280;45241;49.768;8.636;2023-04-07T10:29:47;100134.28;;;12.91;78.27
59435;BME280;45241;49.768;8.636;2023-04-07T10:32:13;100135.31;;;13.04;77.90
59435;BME280;45241;49.768;8.636;2023-04-07T10:37:19;100137.56;;;13.07;80.17
59435;BME280;45241;49.768;8.636;2023-04-07T10:39:48;100139.66;;;13.11;80.20
59435;BME280;45241;49.768;8.636;2023-04-07T10:44:57;100137.56;;;13.07;77.90
59435;BME280;45241;49.768;8.636;2023-04-07T10:47:24;100140.09;;;13.08;78.52
59435;BME280;45241;49.768;8.636;2023-04-07T10:52:33;100144.59;;;12.55;80.00
59435;BME280;45241;49.768;8.636;2023-04-07T10:58:10;100148.78;;;12.71;80.06
59435;BME280;45241;49.768;8.636;2023-04-07T11:00:28;100147.53;;;12.73;80.80
59435;BME280;45241;49.768;8.636;2023-04-07T11:02:53;100150.63;;;12.70;81.12
59435;BME280;45241;49.768;8.636;2023-04-07T11:05:19;100146.91;;;12.58;83.12
59435;BME280;45241;49.768;8.636;2023-04-07T11:07:45;100151.66;;;12.76;84.03
59435;BME280;45241;49.768;8.636;2023-04-07T11:10:11;100152.50;;;12.83;84.48
59435;BME280;45241;49.768;8.636;2023-04-07T11:12:37;100154.13;;;12.77;84.17
59435;BME280;45241;49.768;8.636;2023-04-07T11:15:15;100153.72;;;12.80;84.48
59435;BME280;45241;49.768;8.636;2023-04-07T11:17:41;100149.78;;;12.76;84.53
59435;BME280;45241;49.768;8.636;2023-04-07T11:20:06;100153.72;;;12.74;87.58
59435;BME280;45241;49.768;8.636;2023-04-07T11:22:31;100153.94;;;12.59;87.53
59435;BME280;45241;49.768;8.636;2023-04-07T11:24:59;100148.75;;;12.64;88.02
59435;BME280;45241;49.768;8.636;2023-04-07T11:27:24;100159.94;;;12.48;90.59
59435;BME280;45241;49.768;8.636;2023-04-07T11:29:50;100160.75;;;12.61;91.61
59435;BME280;45241;49.768;8.636;2023-04-07T11:32:21;100160.56;;;12.56;92.77
59435;BME280;45241;49.768;8.636;2023-04-07T11:34:46;100162.00;;;12.66;93.60
59435;BME280;45241;49.768;8.636;2023-04-07T11:37:18;100163.03;;;12.58;92.96
59435;BME280;45241;49.768;8.636;2023-04-07T11:39:44;100162.22;;;12.77;91.63
59435;BME280;45241;49.768;8.636;2023-04-07T11:42:11;100165.75;;;12.84;91.54
59435;BME280;45241;49.768;8.636;2023-04-07T11:44:46;100171.34;;;12.89;91.53
59435;BME280;45241;49.768;8.636;2023-04-07T11:47:11;100170.72;;;13.01;92.05
59435;BME280;45241;49.768;8.636;2023-04-07T11:49:43;100171.72;;;13.06;92.53
59435;BME280;45241;49.768;8.636;2023-04-07T11:52:08;100177.31;;;13.05;93.64
59435;BME280;45241;49.768;8.636;2023-04-07T11:54:43;100172.78;;;12.92;92.80
59435;BME280;45241;49.768;8.636;2023-04-07T11:57:10;100178.97;;;12.86;91.88
59435;BME280;45241;49.768;8.636;2023-04-07T11:59:36;100174.63;;;12.58;89.15
59435;BME280;45241;49.768;8.636;2023-04-07T12:02:02;100172.34;;;12.75;90.97
59435;BME280;45241;49.768;8.636;2023-04-07T12:04:28;100180.84;;;12.85;88.68
59435;BME280;45241;49.768;8.636;2023-04-07T12:06:53;100187.44;;;12.76;88.90
59435;BME280;45241;49.768;8.636;2023-04-07T12:11:53;100182.69;;;12.78;92.52
59435;BME280;45241;49.768;8.636;2023-04-07T12:14:18;100189.94;;;12.65;93.46
59435;BME280;45241;49.768;8.636;2023-04-07T12:16:43;100185.19;;;12.60;93.15
59435;BME280;45241;49.768;8.636;2023-04-07T12:19:09;100186.59;;;12.49;95.24
59435;BME280;45241;49.768;8.636;2023-04-07T12:21:34;100190.75;;;12.65;95.19
59435;BME280;45241;49.768;8.636;2023-04-07T12:23:59;100193.44;;;12.58;93.25
59435;BME280;45241;49.768;8.636;2023-04-07T12:26:25;100193.00;;;12.55;93.96
59435;BME280;45241;49.768;8.636;2023-04-07T12:28:50;100191.81;;;12.57;95.92
59435;BME280;45241;49.768;8.636;2023-04-07T12:31:15;100194.09;;;12.74;95.94
59435;BME280;45241;49.768;8.636;2023-04-07T12:33:40;100195.94;;;12.73;96.22
59435;BME280;45241;49.768;8.636;2023-04-07T12:36:06;100200.09;;;12.82;95.37
59435;BME280;45241;49.768;8.636;2023-04-07T12:38:31;100197.19;;;12.77;95.28
59435;BME280;45241;49.768;8.636;2023-04-07T12:40:56;100201.53;;;12.72;97.00
59435;BME280;45241;49.768;8.636;2023-04-07T12:43:27;100199.69;;;12.85;94.56
59435;BME280;45241;49.768;8.636;2023-04-07T12:45:52;100202.41;;;12.99;93.01
59435;BME280;45241;49.768;8.636;2023-04-07T12:48:17;100201.31;;;12.86;91.81
59435;BME280;45241;49.768;8.636;2023-04-07T12:50:43;100198.63;;;12.86;90.09
59435;BME280;45241;49.768;8.636;2023-04-07T12:53:08;100202.59;;;13.04;86.97
59435;BME280;45241;49.768;8.636;2023-04-07T12:55:33;100198.44;;;13.08;87.79
59435;BME280;45241;49.768;8.636;2023-04-07T12:57:59;100203.00;;;13.01;87.52
59435;BME280;45241;49.768;8.636;2023-04-07T13:00:24;100199.69;;;13.12;87.18
59435;BME280;45241;49.768;8.636;2023-04-07T13:02:51;100202.16;;;13.20;86.17
59435;BME280;45241;49.768;8.636;2023-04-07T13:05:17;100204.22;;;13.18;85.73
59435;BME280;45241;49.768;8.636;2023-04-07T13:07:43;100196.56;;;13.15;86.72